Time,TemperatureF,DewpointF,PressureIn,WindDirection,WindDirectionDegrees,WindSpeedMPH,WindSpeedGustMPH,Humidity,HourlyPrecipIn,Conditions,Clouds,dailyrainin,SoftwareType,DateUTC
2014-02-04 00:04:00,62.6,34.5,30.11,SE,124,2.7,3.5,35,1.30,-SN,,0.00,WeatherDisplay:10.37,2014-02-04 06:04:00,
2014-02-04 00:09:00,63.5,35.3,30.11,ESE,104,2.7,5.8,35,1.30,-SN,,0.00,WeatherDisplay:10.37,2014-02-04 06:09:00,
2014-02-04 00:14:00,65.1,36.8,30.11,ESE,111,3.6,5.8,35,1.30,-SN,,0.00,WeatherDisplay:10.37,2014-02-04 06:14:00,
2014-02-04 00:20:00,65.8,36.7,30.11,East,101,3.1,4.9,34,1.30,RA,,0.00,WeatherDisplay:10.37,2014-02-04 06:20:00,
2014-02-04 00:25:00,66.6,37.3,30.11,ENE,70,0.0,3.6,34,1.30,-SN,,0.00,WeatherDisplay:10.37,2014-02-04 06:25:00,
2014-02-04 00:30:00,66.9,37.6,30.11,NE,55,2.7,5.8,34,1.30,-SN,,0.00,WeatherDisplay:10.37,2014-02-04 06:30:00,
2014-02-04 00:35:00,67.1,37.8,30.11,ENE,68,2.2,3.6,34,0.98,-SN,,0.00,WeatherDisplay:10.37,2014-02-04 06:35:00,
2014-02-04 00:40:00,66.9,37.6,30.11,ENE,63,4.5,5.4,34,0.67,-SN,,0.00,WeatherDisplay:10.37,2014-02-04 06:40:00,
2014-02-04 00:45:00,66.7,37.5,30.11,ENE,60,2.2,0.0,34,0.00,-SN,,0.00,WeatherDisplay:10.37,2014-02-04 06:45:00,
2014-02-04 00:50:00,66.4,37.1,30.10,ESE,117,2.7,5.8,34,0.00,OVC,,0.00,WeatherDisplay:10.37,2014-02-04 06:50:00,
2014-02-04 00:55:00,66.0,36.8,30.10,NE,40,0.0,4.6,34,0.00,-SN,,0.00,WeatherDisplay:10.37,2014-02-04 06:55:00,
2014-02-04 01:00:00,65.8,36.7,30.10,NE,46,3.6,4.6,34,0.00,-SN,,0.00,WeatherDisplay:10.37,2014-02-04 07:00:00,
2014-02-04 01:05:00,65.8,36.7,30.11,ENE,64,2.7,7.6,34,0.00,OVC,,0.00,WeatherDisplay:10.37,2014-02-04 07:05:00,
2014-02-04 01:10:00,66.0,36.8,30.11,ENE,66,4.9,5.8,34,0.00,-SN,,0.00,WeatherDisplay:10.37,2014-02-04 07:10:00,
2014-02-04 01:15:00,66.2,37.0,30.11,NE,52,3.6,4.6,34,0.00,OVC,,0.00,WeatherDisplay:10.37,2014-02-04 07:15:00,
2014-02-04 01:20:00,66.6,37.3,30.11,NE,43,2.7,5.8,34,0.00,-SN,,0.00,WeatherDisplay:10.37,2014-02-04 07:20:00,
2014-02-04 01:25:00,66.9,37.6,30.11,NE,52,3.1,5.8,34,0.00,OVC,,0.00,WeatherDisplay:10.37,2014-02-04 07:25:00,
2014-02-04 01:30:00,67.1,37.8,30.11,ENE,59,4.0,4.0,34,0.00,-SN,,0.00,WeatherDisplay:10.37,2014-02-04 07:30:00,
2014-02-04 01:35:00,67.3,37.9,30.10,ENE,61,3.1,4.6,34,0.00,-SN,,0.00,WeatherDisplay:10.37,2014-02-04 07:35:00,
2014-02-04 01:40:00,67.5,38.1,30.10,ENE,76,0.0,5.8,34,0.00,BKN,,0.00,WeatherDisplay:10.37,2014-02-04 07:40:00,
2014-02-04 01:45:00,67.5,38.1,30.10,ENE,68,4.9,5.8,34,0.00,-SN,,0.00,WeatherDisplay:10.37,2014-02-04 07:45:00,
2014-02-04 01:50:00,67.3,37.9,30.10,ENE,64,3.1,5.8,34,0.00,BKN,,0.00,WeatherDisplay:10.37,2014-02-04 07:50:00,
2014-02-04 01:55:00,66.9,37.6,30.10,East,85,4.0,9.2,34,0.00,-SN,,0.00,WeatherDisplay:10.37,2014-02-04 07:55:00,
2014-02-04 02:00:00,66.6,37.3,30.10,ENE,68,6.7,8.1,34,0.00,-SN,,0.00,WeatherDisplay:10.37,2014-02-04 08:00:00,
2014-02-04 02:05:00,66.2,37.0,30.11,ESE,103,5.8,8.1,34,0.00,OVC,,0.00,WeatherDisplay:10.37,2014-02-04 08:05:00,
2014-02-04 02:10:00,66.2,37.0,30.11,ENE,69,2.7,6.3,34,0.00,OVC,,0.00,WeatherDisplay:10.37,2014-02-04 08:10:00,
2014-02-04 02:15:00,66.4,37.1,30.11,ENE,74,4.0,8.1,34,0.00,OVC,,0.00,WeatherDisplay:10.37,2014-02-04 08:15:00,
2014-02-04 02:20:00,66.6,37.3,30.11,ENE,64,5.4,8.1,34,0.00,OVC,,0.00,WeatherDisplay:10.37,2014-02-04 08:20:00,
2014-02-04 02:25:00,66.7,37.5,30.11,NE,45,4.9,5.8,34,0.00,OVC,,0.00,WeatherDisplay:10.37,2014-02-04 08:25:00,
2014-02-04 02:30:00,67.1,37.8,30.11,NNE,32,4.9,5.8,34,0.00,-SN,,0.00,WeatherDisplay:10.37,2014-02-04 08:30:00,
2014-02-04 02:35:00,67.3,37.9,30.11,NE,39,2.7,5.8,34,0.00,OVC,,0.00,WeatherDisplay:10.37,2014-02-04 08:35:00,
2014-02-04 02:40:00,67.5,38.1,30.11,NE,46,5.4,7.6,34,0.00,-SN,,0.00,WeatherDisplay:10.37,2014-02-04 08:40:00,
2014-02-04 02:45:00,67.5,38.1,30.11,ENE,70,5.4,8.1,34,0.00,OVC,,0.00,WeatherDisplay:10.37,2014-02-04 08:45:00,
2014-02-04 02:50:00,67.3,37.9,30.11,NNE,32,5.8,8.7,34,0.00,-SN,,0.00,WeatherDisplay:10.37,2014-02-04 08:50:00,
2014-02-04 02:55:00,67.1,37.8,30.11,NE,49,6.3,8.1,34,0.00,OVC,,0.00,WeatherDisplay:10.37,2014-02-04 08:55:00,
2014-02-04 03:00:00,66.7,37.5,30.11,ENE,60,5.4,5.4,34,0.00,-SN,,0.00,WeatherDisplay:10.37,2014-02-04 09:00:00,
2014-02-04 03:05:00,66.4,37.1,30.11,NE,47,3.6,5.8,34,0.00,BKN,,0.00,WeatherDisplay:10.37,2014-02-04 09:05:00,
2014-02-04 03:10:00,66.0,36.8,30.11,NE,46,5.8,8.1,34,0.00,BKN,,0.00,WeatherDisplay:10.37,2014-02-04 09:10:00,
2014-02-04 03:15:00,66.0,36.8,30.11,East,91,3.6,3.6,34,0.00,-SN,,0.00,WeatherDisplay:10.37,2014-02-04 09:15:00,
2014-02-04 03:20:00,66.0,36.8,30.11,NE,41,2.7,5.8,34,0.00,BKN,,0.00,WeatherDisplay:10.37,2014-02-04 09:20:00,
2014-02-04 03:25:00,66.4,37.1,30.11,ENE,77,3.6,5.8,34,0.00,BKN,,0.00,WeatherDisplay:10.37,2014-02-04 09:25:00,
2014-02-04 03:30:00,66.6,37.3,30.11,ENE,65,5.4,8.1,34,0.00,-SN,,0.00,WeatherDisplay:10.37,2014-02-04 09:30:00,
2014-02-04 03:35:00,66.7,37.5,30.12,ENE,62,4.5,5.8,34,0.00,OVC,,0.00,WeatherDisplay:10.37,2014-02-04 09:35:00,
2014-02-04 03:40:00,67.1,37.8,30.12,North,11,4.0,5.8,34,0.00,OVC,,0.00,WeatherDisplay:10.37,2014-02-04 09:40:00,
2014-02-04 03:45:00,67.3,37.9,30.12,ENE,72,4.9,8.1,34,0.00,OVC,,0.00,WeatherDisplay:10.37,2014-02-04 09:45:00,
2014-02-04 03:50:00,67.5,38.1,30.12,East,99,4.0,8.1,34,0.00,OVC,,0.00,WeatherDisplay:10.37,2014-02-04 09:50:00,
2014-02-04 03:55:00,67.3,37.9,30.12,East,94,4.5,8.1,34,0.00,OVC,,0.00,WeatherDisplay:10.37,2014-02-04 09:55:00,
2014-02-04 04:00:00,67.1,37.8,30.12,NE,37,4.0,6.9,34,0.00,-SN,,0.00,WeatherDisplay:10.37,2014-02-04 10:00:00,
2014-02-04 04:05:00,66.7,37.5,30.11,East,80,3.1,5.8,34,0.00,BKN,,0.00,WeatherDisplay:10.37,2014-02-04 10:05:00,
2014-02-04 04:10:00,66.4,37.1,30.11,ENE,72,6.3,8.1,34,0.00,BKN,,0.00,WeatherDisplay:10.37,2014-02-04 10:10:00,
2014-02-04 04:15:00,66.0,36.8,30.11,East,86,7.2,8.1,34,0.00,BKN,,0.00,WeatherDisplay:10.37,2014-02-04 10:15:00,
2014-02-04 04:20:00,65.8,36.7,30.11,NE,40,6.3,9.2,34,0.00,BKN,,0.00,WeatherDisplay:10.37,2014-02-04 10:20:00,
2014-02-04 04:25:00,65.8,36.7,30.11,NNE,23,6.3,9.2,34,0.00,BKN,,0.00,WeatherDisplay:10.37,2014-02-04 10:25:00,
2014-02-04 04:30:00,66.0,36.8,30.11,NE,53,3.6,8.1,34,0.00,-SN,,0.00,WeatherDisplay:10.37,2014-02-04 10:30:00,
2014-02-04 04:35:00,66.2,37.0,30.11,NE,46,4.5,6.9,34,0.00,OVC,,0.00,WeatherDisplay:10.37,2014-02-04 10:35:00,
2014-02-04 04:40:00,66.6,37.3,30.11,ENE,60,7.2,10.4,34,0.00,OVC,,0.00,WeatherDisplay:10.37,2014-02-04 10:40:00,
2014-02-04 04:45:00,66.7,37.5,30.11,NE,46,4.5,9.2,34,0.00,OVC,,0.00,WeatherDisplay:10.37,2014-02-04 10:45:00,
2014-02-04 04:50:00,66.9,37.6,30.11,ESE,109,5.4,9.2,34,0.00,OVC,,0.00,WeatherDisplay:10.37,2014-02-04 10:50:00,
2014-02-04 04:55:00,67.1,37.8,30.11,East,84,3.6,5.8,34,0.00,OVC,,0.00,WeatherDisplay:10.37,2014-02-04 10:55:00,
2014-02-04 05:00:00,67.3,37.9,30.11,East,90,3.1,8.1,34,0.00,-SN,,0.00,WeatherDisplay:10.37,2014-02-04 11:00:00,
2014-02-04 05:05:00,67.3,37.9,30.08,NE,56,4.9,8.1,34,0.00,OVC,,0.00,WeatherDisplay:10.37,2014-02-04 11:05:00,
2014-02-04 05:10:00,67.3,37.9,30.08,NE,46,8.0,11.5,34,0.00,OVC,,0.00,WeatherDisplay:10.37,2014-02-04 11:10:00,
2014-02-04 05:15:00,66.9,37.6,30.08,ENE,76,6.7,9.2,34,0.00,OVC,,0.00,WeatherDisplay:10.37,2014-02-04 11:15:00,
2014-02-04 05:20:00,66.7,37.5,30.08,NE,48,5.8,9.2,34,0.00,OVC,,0.00,WeatherDisplay:10.37,2014-02-04 11:20:00,
2014-02-04 05:25:00,66.4,37.1,30.08,East,99,4.0,10.4,34,0.00,OVC,,0.00,WeatherDisplay:10.37,2014-02-04 11:25:00,
2014-02-04 05:30:00,66.2,37.0,30.08,NNE,30,5.8,8.3,34,0.00,-SN,,0.00,WeatherDisplay:10.37,2014-02-04 11:30:00,
2014-02-04 05:35:00,66.0,36.8,30.07,NE,49,3.6,10.5,34,0.00,OVC,,0.00,WeatherDisplay:10.37,2014-02-04 11:35:00,
2014-02-04 05:40:00,66.2,37.0,30.07,ENE,75,3.1,8.3,34,0.00,OVC,,0.00,WeatherDisplay:10.37,2014-02-04 11:40:00,
2014-02-04 05:45:00,66.4,37.1,30.07,East,95,8.3,11.5,34,0.00,OVC,,0.00,WeatherDisplay:10.37,2014-02-04 11:45:00,
2014-02-04 05:50:00,66.6,37.3,30.07,ENE,58,8.7,12.7,34,0.00,OVC,,0.00,WeatherDisplay:10.37,2014-02-04 11:50:00,
2014-02-04 05:55:00,66.7,37.5,30.07,NNE,18,7.6,15.0,34,0.00,OVC,,0.00,WeatherDisplay:10.37,2014-02-04 11:55:00,
2014-02-04 06:00:00,66.9,37.6,30.07,ENE,58,5.8,12.7,34,0.00,-SN,,0.00,WeatherDisplay:10.37,2014-02-04 12:00:00,
2014-02-04 06:05:00,67.1,37.8,30.04,NE,50,4.5,10.9,34,0.00,OVC,,0.00,WeatherDisplay:10.37,2014-02-04 12:05:00,
2014-02-04 06:10:00,67.1,37.8,30.04,NNE,33,9.2,12.3,34,0.00,OVC,,0.00,WeatherDisplay:10.37,2014-02-04 12:10:00,
2014-02-04 06:15:00,67.3,37.9,30.04,NE,45,8.3,12.7,34,0.00,OVC,,0.00,WeatherDisplay:10.37,2014-02-04 12:15:00,
2014-02-04 06:20:00,66.9,37.6,30.04,ENE,61,9.6,15.0,34,0.00,OVC,,0.00,WeatherDisplay:10.37,2014-02-04 12:20:00,
2014-02-04 06:25:00,66.7,37.5,30.04,NE,45,8.0,12.7,34,0.00,OVC,,0.00,WeatherDisplay:10.37,2014-02-04 12:25:00,
2014-02-04 06:30:00,66.4,37.1,30.04,NE,35,5.8,8.1,34,0.00,-SN,,0.00,WeatherDisplay:10.37,2014-02-04 12:30:00,
2014-02-04 06:35:00,66.0,36.8,30.03,ENE,58,4.5,9.2,34,0.00,OVC,,0.00,WeatherDisplay:10.37,2014-02-04 12:35:00,
2014-02-04 06:40:00,65.7,36.5,30.03,NNE,33,8.3,11.5,34,0.00,OVC,,0.00,WeatherDisplay:10.37,2014-02-04 12:40:00,
2014-02-04 06:45:00,65.7,36.5,30.03,ENE,76,8.3,15.0,34,0.00,OVC,,0.00,WeatherDisplay:10.37,2014-02-04 12:45:00,
2014-02-04 06:50:00,65.8,36.7,30.01,ENE,63,9.2,11.5,34,0.00,OVC,,0.00,WeatherDisplay:10.37,2014-02-04 12:50:00,
2014-02-04 06:55:00,66.0,36.8,30.01,NE,37,5.4,13.2,34,0.00,OVC,,0.00,WeatherDisplay:10.37,2014-02-04 12:55:00,
2014-02-04 07:00:00,66.2,37.0,30.01,ENE,65,7.6,11.5,34,0.00,-SN,,0.00,WeatherDisplay:10.37,2014-02-04 13:00:00,
2014-02-04 07:05:00,66.4,37.1,30.00,NE,48,7.6,10.4,34,0.00,OVC,,0.00,WeatherDisplay:10.37,2014-02-04 13:05:00,
2014-02-04 07:10:00,66.6,37.3,30.00,NE,39,7.6,12.7,34,0.00,OVC,,0.00,WeatherDisplay:10.37,2014-02-04 13:10:00,
2014-02-04 07:15:00,66.7,37.5,30.00,NE,46,6.3,6.3,34,0.00,OVC,,0.00,WeatherDisplay:10.37,2014-02-04 13:15:00,
2014-02-04 07:20:00,66.9,37.6,30.00,NE,35,10.1,11.5,34,0.00,OVC,,0.00,WeatherDisplay:10.37,2014-02-04 13:20:00,
2014-02-04 07:25:00,66.9,37.6,30.00,NE,39,6.7,10.4,34,0.00,OVC,,0.00,WeatherDisplay:10.37,2014-02-04 13:25:00,
2014-02-04 07:30:00,67.1,37.8,30.00,NNE,32,6.7,10.4,34,0.00,-SN,,0.00,WeatherDisplay:10.37,2014-02-04 13:30:00,
2014-02-04 07:35:00,67.1,37.8,30.01,NE,52,7.2,12.7,34,0.00,OVC,,0.00,WeatherDisplay:10.37,2014-02-04 13:35:00,
2014-02-04 07:40:00,66.9,37.6,30.01,NE,50,6.7,10.4,34,0.00,OVC,,0.00,WeatherDisplay:10.37,2014-02-04 13:40:00,
2014-02-04 07:45:00,66.7,37.5,30.01,ENE,64,5.8,8.1,34,0.00,OVC,,0.00,WeatherDisplay:10.37,2014-02-04 13:45:00,
2014-02-04 07:50:00,66.4,37.1,30.01,NE,43,4.5,10.5,34,0.00,OVC,,0.00,WeatherDisplay:10.37,2014-02-04 13:50:00,
2014-02-04 07:55:00,66.0,36.8,30.01,East,81,4.0,5.8,34,0.00,OVC,,0.00,WeatherDisplay:10.37,2014-02-04 13:55:00,
2014-02-04 08:00:00,65.8,36.7,30.01,NE,37,4.9,8.1,34,0.00,-SN,,0.00,WeatherDisplay:10.37,2014-02-04 14:00:00,
2014-02-04 08:05:00,65.8,36.7,30.02,ENE,74,6.3,8.1,34,0.00,OVC,,0.00,WeatherDisplay:10.37,2014-02-04 14:05:00,
2014-02-04 08:10:00,66.0,36.8,30.02,ENE,66,4.9,10.9,34,0.00,OVC,,0.00,WeatherDisplay:10.37,2014-02-04 14:10:00,
2014-02-04 08:15:00,66.2,37.0,30.02,NE,55,5.4,8.1,34,0.00,OVC,,0.00,WeatherDisplay:10.37,2014-02-04 14:15:00,
2014-02-04 08:20:00,66.4,37.1,30.02,NE,34,6.7,9.2,34,0.00,OVC,,0.00,WeatherDisplay:10.37,2014-02-04 14:20:00,
2014-02-04 08:25:00,66.6,37.3,30.02,NE,46,5.8,8.1,34,0.00,OVC,,0.00,WeatherDisplay:10.37,2014-02-04 14:25:00,
2014-02-04 08:30:00,66.7,37.5,30.02,NNE,28,6.3,8.1,34,0.00,OVC,,0.00,WeatherDisplay:10.37,2014-02-04 14:30:00,
2014-02-04 08:35:00,66.9,37.6,30.01,ENE,57,4.5,8.7,34,0.00,OVC,,0.00,WeatherDisplay:10.37,2014-02-04 14:35:00,
2014-02-04 08:40:00,67.1,37.8,30.01,NE,52,8.0,11.5,34,0.00,OVC,,0.00,WeatherDisplay:10.37,2014-02-04 14:40:00,
2014-02-04 08:44:00,67.1,37.8,30.01,NE,49,7.2,10.4,34,0.00,OVC,,0.00,WeatherDisplay:10.37,2014-02-04 14:44:00,
2014-02-04 08:49:00,67.1,37.8,30.00,NE,50,5.4,8.1,34,0.00,OVC,,0.00,WeatherDisplay:10.37,2014-02-04 14:49:00,
2014-02-04 08:54:00,67.1,37.8,30.00,ENE,73,2.7,6.9,34,0.00,OVC,,0.00,WeatherDisplay:10.37,2014-02-04 14:54:00,
2014-02-04 08:59:00,66.7,37.5,30.00,ENE,71,5.8,8.1,34,0.00,OVC,,0.00,WeatherDisplay:10.37,2014-02-04 14:59:00,
2014-02-04 09:04:00,66.4,37.1,30.02,NE,40,5.8,8.1,34,0.00,OVC,,0.00,WeatherDisplay:10.37,2014-02-04 15:04:00,
2014-02-04 09:09:00,66.0,36.8,30.02,NE,56,4.0,8.0,34,0.00,OVC,,0.00,WeatherDisplay:10.37,2014-02-04 15:09:00,
2014-02-04 09:14:00,65.7,36.5,30.02,NE,35,4.0,8.1,34,0.00,OVC,,0.00,WeatherDisplay:10.37,2014-02-04 15:14:00,
2014-02-04 09:19:00,65.5,36.4,30.02,ENE,64,5.8,9.2,34,0.00,OVC,,0.00,WeatherDisplay:10.37,2014-02-04 15:19:00,
2014-02-04 09:24:00,65.5,36.4,30.02,ENE,74,5.4,5.8,34,0.00,OVC,,0.00,WeatherDisplay:10.37,2014-02-04 15:24:00,
2014-02-04 09:29:00,65.7,36.5,30.02,NE,42,4.0,9.2,34,0.00,OVC,,0.00,WeatherDisplay:10.37,2014-02-04 15:29:00,
2014-02-04 09:34:00,65.8,36.7,30.01,NE,43,3.6,5.8,34,0.00,OVC,,0.00,WeatherDisplay:10.37,2014-02-04 15:34:00,
2014-02-04 09:39:00,66.2,37.0,30.01,NE,51,7.2,10.4,34,0.00,OVC,,0.00,WeatherDisplay:10.37,2014-02-04 15:39:00,
2014-02-04 09:44:00,66.4,37.1,30.01,NE,37,4.5,6.3,34,0.00,OVC,,0.00,WeatherDisplay:10.37,2014-02-04 15:44:00,
2014-02-04 09:49:00,66.6,37.3,30.00,NE,44,5.8,8.1,34,0.00,OVC,,0.00,WeatherDisplay:10.37,2014-02-04 15:49:00,
2014-02-04 09:54:00,66.7,37.5,30.00,ENE,64,0.0,3.6,34,0.00,OVC,,0.00,WeatherDisplay:10.37,2014-02-04 15:54:00,
2014-02-04 09:59:00,66.9,37.6,30.00,ENE,65,4.5,5.8,34,0.00,OVC,,0.00,WeatherDisplay:10.37,2014-02-04 15:59:00,
2014-02-04 10:04:00,67.1,37.8,30.02,NE,39,4.0,5.8,34,0.00,OVC,,0.00,WeatherDisplay:10.37,2014-02-04 16:04:00,
2014-02-04 10:09:00,67.1,37.8,30.02,ENE,60,4.0,5.8,34,0.00,OVC,,0.00,WeatherDisplay:10.37,2014-02-04 16:09:00,
2014-02-04 10:14:00,66.9,37.6,30.02,NE,44,4.5,5.8,34,0.00,OVC,,0.00,WeatherDisplay:10.37,2014-02-04 16:14:00,
2014-02-04 10:19:00,66.7,37.5,30.02,NE,45,4.5,5.8,34,0.00,OVC,,0.00,WeatherDisplay:10.37,2014-02-04 16:19:00,
2014-02-04 10:24:00,66.4,37.1,30.02,NE,42,2.7,5.8,34,0.00,OVC,,0.00,WeatherDisplay:10.37,2014-02-04 16:24:00,
2014-02-04 10:29:00,66.0,36.8,30.02,East,79,4.5,6.9,34,0.00,OVC,,0.00,WeatherDisplay:10.37,2014-02-04 16:29:00,
2014-02-04 10:34:00,65.8,36.7,30.03,ENE,78,4.9,5.8,34,0.00,OVC,,0.00,WeatherDisplay:10.37,2014-02-04 16:34:00,
2014-02-04 10:39:00,65.8,36.7,30.03,NE,52,5.4,10.4,34,0.00,OVC,,0.00,WeatherDisplay:10.37,2014-02-04 16:39:00,
2014-02-04 10:44:00,65.8,36.7,30.03,East,83,3.6,8.1,34,0.00,OVC,,0.00,WeatherDisplay:10.37,2014-02-04 16:44:00,
2014-02-04 10:49:00,66.0,36.8,30.02,ESE,114,3.6,8.1,34,0.00,OVC,,0.00,WeatherDisplay:10.37,2014-02-04 16:49:00,
2014-02-04 10:54:00,66.4,37.1,30.02,ENE,60,4.5,8.1,34,0.00,OVC,,0.00,WeatherDisplay:10.37,2014-02-04 16:54:00,
2014-02-04 10:59:00,66.6,37.3,30.02,ENE,59,0.0,2.3,34,0.00,OVC,,0.00,WeatherDisplay:10.37,2014-02-04 16:59:00,
2014-02-04 11:04:00,66.7,37.5,30.02,NE,48,4.5,5.8,34,0.00,OVC,,0.00,WeatherDisplay:10.37,2014-02-04 17:04:00,
2014-02-04 11:09:00,66.9,37.6,30.02,ENE,67,4.5,5.8,34,0.00,OVC,,0.00,WeatherDisplay:10.37,2014-02-04 17:09:00,
2014-02-04 11:14:00,67.1,37.8,30.02,NE,44,4.9,10.1,34,0.00,OVC,,0.00,WeatherDisplay:10.37,2014-02-04 17:14:00,
2014-02-04 11:19:00,67.1,37.8,30.02,NE,38,4.5,10.4,34,0.00,OVC,,0.00,WeatherDisplay:10.37,2014-02-04 17:19:00,
2014-02-04 11:24:00,67.1,37.8,30.02,NE,41,6.7,6.7,34,0.00,OVC,,0.00,WeatherDisplay:10.37,2014-02-04 17:24:00,
2014-02-04 11:29:00,66.9,37.6,30.02,ENE,64,6.7,10.4,34,0.00,OVC,,0.00,WeatherDisplay:10.37,2014-02-04 17:29:00,
2014-02-04 11:34:00,66.7,37.5,30.02,ENE,61,4.5,6.9,34,0.00,OVC,,0.00,WeatherDisplay:10.37,2014-02-04 17:34:00,
2014-02-04 11:39:00,66.4,37.1,30.02,NE,35,6.3,9.2,34,0.00,OVC,,0.00,WeatherDisplay:10.37,2014-02-04 17:39:00,
2014-02-04 11:44:00,66.0,36.8,30.02,NE,49,4.9,5.8,34,0.00,OVC,,0.00,WeatherDisplay:10.37,2014-02-04 17:44:00,
2014-02-04 11:49:00,65.8,36.7,30.01,NE,48,4.0,6.9,34,0.00,OVC,,0.00,WeatherDisplay:10.37,2014-02-04 17:49:00,
2014-02-04 11:54:00,65.8,36.7,30.01,NE,41,8.0,10.4,34,0.00,OVC,,0.00,WeatherDisplay:10.37,2014-02-04 17:54:00,
2014-02-04 11:59:00,65.8,36.7,30.01,NNE,23,5.4,8.1,34,0.00,OVC,,0.00,WeatherDisplay:10.37,2014-02-04 17:59:00,
2014-02-04 12:04:00,66.0,36.8,29.99,NE,41,4.5,11.4,34,0.00,OVC,,0.00,WeatherDisplay:10.37,2014-02-04 18:04:00,
2014-02-04 12:09:00,66.4,37.1,29.99,NE,48,8.3,10.4,34,0.00,OVC,,0.00,WeatherDisplay:10.37,2014-02-04 18:09:00,
2014-02-04 12:14:00,66.6,37.3,29.99,NE,47,8.3,10.5,34,0.00,OVC,,0.00,WeatherDisplay:10.37,2014-02-04 18:14:00,
2014-02-04 12:19:00,66.9,37.6,29.99,NNE,15,6.7,8.1,34,0.00,OVC,,0.00,WeatherDisplay:10.37,2014-02-04 18:19:00,
2014-02-04 12:24:00,67.1,37.8,29.99,NE,43,5.8,8.7,34,0.00,OVC,,0.00,WeatherDisplay:10.37,2014-02-04 18:24:00,
2014-02-04 12:29:00,67.3,37.9,29.99,NE,41,10.1,10.4,34,0.00,OVC,,0.00,WeatherDisplay:10.37,2014-02-04 18:29:00,
2014-02-04 12:34:00,67.5,38.1,29.98,NNE,33,7.2,13.8,34,0.00,OVC,,0.00,WeatherDisplay:10.37,2014-02-04 18:34:00,
2014-02-04 12:39:00,67.5,38.1,29.98,ENE,59,7.2,15.0,34,0.00,OVC,,0.00,WeatherDisplay:10.37,2014-02-04 18:39:00,
2014-02-04 12:44:00,67.1,37.8,29.98,NNE,22,7.6,12.7,34,0.00,OVC,,0.00,WeatherDisplay:10.37,2014-02-04 18:44:00,
2014-02-04 12:46:00,67.1,37.8,29.95,NE,56,6.3,12.7,34,0.00,OVC,,0.00,WeatherDisplay:10.37,2014-02-04 18:46:00,
2014-02-04 12:51:00,66.9,37.6,29.95,NNE,33,7.6,10.4,34,0.00,OVC,,0.00,WeatherDisplay:10.37,2014-02-04 18:51:00,
2014-02-04 12:56:00,66.6,37.3,29.95,North,6,10.5,15.0,34,0.00,OVC,,0.00,WeatherDisplay:10.37,2014-02-04 18:56:00,
2014-02-04 13:01:00,66.4,37.1,29.93,NE,37,6.3,12.7,34,0.00,OVC,,0.00,WeatherDisplay:10.37,2014-02-04 19:01:00,
2014-02-04 13:06:00,66.4,37.1,29.93,ENE,60,10.5,17.4,34,0.00,OVC,,0.00,WeatherDisplay:10.37,2014-02-04 19:06:00,
2014-02-04 13:11:00,66.4,37.1,29.93,NE,47,9.6,12.7,34,0.00,OVC,,0.00,WeatherDisplay:10.37,2014-02-04 19:11:00,
2014-02-04 13:16:00,66.6,37.3,29.93,NE,49,9.6,12.7,34,0.00,OVC,,0.00,WeatherDisplay:10.37,2014-02-04 19:16:00,
2014-02-04 13:21:00,66.7,37.5,29.93,NE,45,5.4,10.4,34,0.00,OVC,,0.00,WeatherDisplay:10.37,2014-02-04 19:21:00,
2014-02-04 13:26:00,67.1,37.8,29.93,NE,56,9.2,11.5,34,0.00,OVC,,0.00,WeatherDisplay:10.37,2014-02-04 19:26:00,
2014-02-04 13:31:00,67.3,37.9,29.92,NE,45,5.8,6.9,34,0.00,OVC,,0.00,WeatherDisplay:10.37,2014-02-04 19:31:00,
2014-02-04 13:36:00,67.5,38.1,29.92,NE,46,6.7,9.2,34,0.00,OVC,,0.00,WeatherDisplay:10.37,2014-02-04 19:36:00,
2014-02-04 13:41:00,67.5,38.1,29.92,NE,43,4.5,10.9,34,0.00,OVC,,0.00,WeatherDisplay:10.37,2014-02-04 19:41:00,
2014-02-04 13:46:00,67.5,38.1,29.91,NNW,346,8.0,12.7,34,0.00,OVC,,0.00,WeatherDisplay:10.37,2014-02-04 19:46:00,
2014-02-04 13:51:00,67.1,37.8,29.91,North,8,6.3,8.1,34,0.00,OVC,,0.00,WeatherDisplay:10.37,2014-02-04 19:51:00,
2014-02-04 13:56:00,66.9,37.6,29.91,East,93,7.2,12.7,34,0.00,OVC,,0.00,WeatherDisplay:10.37,2014-02-04 19:56:00,
2014-02-04 14:01:00,66.7,37.5,29.92,NE,51,9.6,15.0,34,0.00,OVC,,0.00,WeatherDisplay:10.37,2014-02-04 20:01:00,
2014-02-04 14:06:00,66.6,37.3,29.92,NE,56,10.1,12.7,34,0.00,OVC,,0.00,WeatherDisplay:10.37,2014-02-04 20:06:00,
2014-02-04 14:11:00,66.4,37.1,29.92,NE,52,9.2,11.5,34,0.00,OVC,,0.00,WeatherDisplay:10.37,2014-02-04 20:11:00,
2014-02-04 14:16:00,66.4,37.1,29.92,NE,49,4.9,10.9,34,0.00,OVC,,0.00,WeatherDisplay:10.37,2014-02-04 20:16:00,
2014-02-04 14:21:00,66.6,37.3,29.92,NNE,18,10.1,15.0,34,0.00,OVC,,0.00,WeatherDisplay:10.37,2014-02-04 20:21:00,
2014-02-04 14:26:00,66.7,37.5,29.92,NE,53,6.7,8.1,34,0.00,OVC,,0.00,WeatherDisplay:10.37,2014-02-04 20:26:00,
2014-02-04 14:31:00,66.9,37.6,29.93,NNE,20,8.3,10.4,34,0.00,OVC,,0.00,WeatherDisplay:10.37,2014-02-04 20:31:00,
2014-02-04 14:36:00,67.1,37.8,29.93,NNE,27,8.0,9.2,34,0.00,OVC,,0.00,WeatherDisplay:10.37,2014-02-04 20:36:00,
2014-02-04 14:41:00,67.3,37.9,29.93,NE,41,7.6,10.4,34,0.00,OVC,,0.00,WeatherDisplay:10.37,2014-02-04 20:41:00,
2014-02-04 14:46:00,67.5,38.1,29.93,NE,49,7.2,10.4,34,0.00,OVC,,0.00,WeatherDisplay:10.37,2014-02-04 20:46:00,
2014-02-04 14:51:00,67.6,38.3,29.93,NE,49,4.5,7.6,34,0.00,OVC,,0.00,WeatherDisplay:10.37,2014-02-04 20:51:00,
2014-02-04 14:56:00,67.6,38.3,29.93,NE,39,8.0,10.4,34,0.00,OVC,,0.00,WeatherDisplay:10.37,2014-02-04 20:56:00,
2014-02-04 15:01:00,67.5,38.1,29.93,NNE,24,8.7,15.0,34,0.00,OVC,,0.00,WeatherDisplay:10.37,2014-02-04 21:01:00,
2014-02-04 15:06:00,67.1,37.8,29.93,NE,35,6.3,12.7,34,0.00,OVC,,0.00,WeatherDisplay:10.37,2014-02-04 21:06:00,
2014-02-04 15:11:00,66.9,37.6,29.93,NNE,14,6.7,10.4,34,0.00,OVC,,0.00,WeatherDisplay:10.37,2014-02-04 21:11:00,
2014-02-04 15:16:00,66.6,37.3,29.93,NNE,12,5.8,8.1,34,0.00,OVC,,0.00,WeatherDisplay:10.37,2014-02-04 21:16:00,
2014-02-04 15:21:00,66.4,37.1,29.93,NNE,31,5.8,9.2,34,0.00,OVC,,0.00,WeatherDisplay:10.37,2014-02-04 21:21:00,
2014-02-04 15:26:00,66.2,37.0,29.93,NNE,17,5.8,10.4,34,0.00,OVC,,0.00,WeatherDisplay:10.37,2014-02-04 21:26:00,
2014-02-04 15:31:00,66.4,37.1,29.94,NE,36,5.4,8.1,34,0.00,OVC,,0.00,WeatherDisplay:10.37,2014-02-04 21:31:00,
2014-02-04 15:36:00,66.4,37.1,29.94,North,11,4.9,5.8,34,0.00,OVC,,0.00,WeatherDisplay:10.37,2014-02-04 21:36:00,
2014-02-04 15:41:00,66.7,37.5,29.94,NE,53,7.2,9.2,34,0.00,OVC,,0.00,WeatherDisplay:10.37,2014-02-04 21:41:00,
2014-02-04 15:46:00,66.9,37.6,29.95,NE,34,7.2,8.1,34,0.00,OVC,,0.00,WeatherDisplay:10.37,2014-02-04 21:46:00,
2014-02-04 15:51:00,67.1,37.8,29.95,NE,54,5.8,11.5,34,0.00,OVC,,0.00,WeatherDisplay:10.37,2014-02-04 21:51:00,
2014-02-04 15:56:00,67.3,37.9,29.95,NNE,29,6.3,9.2,34,0.00,OVC,,0.00,WeatherDisplay:10.37,2014-02-04 21:56:00,
2014-02-04 16:01:00,67.5,38.1,29.95,NNE,12,5.4,5.8,34,0.00,OVC,,0.00,WeatherDisplay:10.37,2014-02-04 22:01:00,
2014-02-04 16:06:00,67.5,38.1,29.95,North,4,4.5,8.1,34,0.00,OVC,,0.00,WeatherDisplay:10.37,2014-02-04 22:06:00,
2014-02-04 16:11:00,67.3,37.9,29.95,NNE,28,6.3,8.1,34,0.00,OVC,,0.00,WeatherDisplay:10.37,2014-02-04 22:11:00,
2014-02-04 16:16:00,66.9,37.6,29.95,North,11,6.7,9.2,34,0.00,OVC,,0.00,WeatherDisplay:10.37,2014-02-04 22:16:00,
2014-02-04 16:21:00,66.7,37.5,29.95,North,357,6.7,6.9,34,0.00,OVC,,0.00,WeatherDisplay:10.37,2014-02-04 22:21:00,
2014-02-04 16:26:00,66.4,37.1,29.95,NNE,13,7.2,10.4,34,0.00,OVC,,0.00,WeatherDisplay:10.37,2014-02-04 22:26:00,
2014-02-04 16:31:00,66.0,36.8,29.95,ENE,67,7.2,12.7,34,0.00,OVC,,0.00,WeatherDisplay:10.37,2014-02-04 22:31:00,
2014-02-04 16:36:00,66.0,36.8,29.95,North,6,8.3,10.4,34,0.00,OVC,,0.00,WeatherDisplay:10.37,2014-02-04 22:36:00,
2014-02-04 16:41:00,66.0,36.8,29.95,North,6,7.2,10.4,34,0.00,OVC,,0.00,WeatherDisplay:10.37,2014-02-04 22:41:00,
2014-02-04 16:46:00,66.0,36.8,29.96,NE,45,8.0,8.3,34,0.00,OVC,,0.00,WeatherDisplay:10.37,2014-02-04 22:46:00,
2014-02-04 16:51:00,66.0,36.8,29.96,NNE,18,7.2,9.2,34,0.00,OVC,,0.00,WeatherDisplay:10.37,2014-02-04 22:51:00,
2014-02-04 16:56:00,66.4,37.1,29.96,North,2,5.8,8.1,34,0.00,OVC,,0.00,WeatherDisplay:10.37,2014-02-04 22:56:00,
2014-02-04 17:01:00,66.6,37.3,29.97,North,2,8.0,15.0,34,0.00,OVC,,0.00,WeatherDisplay:10.37,2014-02-04 23:01:00,
2014-02-04 17:06:00,66.7,37.5,29.97,NNW,343,5.4,8.1,34,0.00,OVC,,0.00,WeatherDisplay:10.37,2014-02-04 23:06:00,
2014-02-04 17:11:00,66.9,37.6,29.97,NE,46,8.0,12.3,34,0.00,OVC,,0.00,WeatherDisplay:10.37,2014-02-04 23:11:00,
2014-02-04 17:16:00,67.1,37.8,29.97,North,9,7.6,12.7,34,0.00,OVC,,0.00,WeatherDisplay:10.37,2014-02-04 23:16:00,
2014-02-04 17:21:00,67.1,37.8,29.97,North,357,8.7,12.7,34,0.00,OVC,,0.00,WeatherDisplay:10.37,2014-02-04 23:21:00,
2014-02-04 17:26:00,67.3,37.9,29.97,NE,41,6.7,9.2,34,0.00,OVC,,0.00,WeatherDisplay:10.37,2014-02-04 23:26:00,
2014-02-04 17:31:00,67.3,37.9,29.98,North,8,4.9,8.1,34,0.00,OVC,,0.00,WeatherDisplay:10.37,2014-02-04 23:31:00,
2014-02-04 17:36:00,67.1,37.8,29.98,NE,39,4.9,5.8,34,0.00,OVC,,0.00,WeatherDisplay:10.37,2014-02-04 23:36:00,
2014-02-04 17:41:00,66.7,37.5,29.98,North,4,4.5,8.3,34,0.00,OVC,,0.00,WeatherDisplay:10.37,2014-02-04 23:41:00,
2014-02-04 17:46:00,66.4,37.1,29.98,North,357,6.3,9.2,34,0.00,BKN,,0.00,WeatherDisplay:10.37,2014-02-04 23:46:00,
2014-02-04 17:51:00,66.0,36.8,29.98,North,4,8.7,12.7,34,0.00,BKN,,0.00,WeatherDisplay:10.37,2014-02-04 23:51:00,
2014-02-04 17:56:00,65.8,36.7,29.98,North,3,6.7,11.5,34,0.00,BKN,,0.00,WeatherDisplay:10.37,2014-02-04 23:56:00,
2014-02-04 18:02:00,66.0,36.8,30.00,NNE,20,6.7,10.4,34,0.00,SCT,,0.00,WeatherDisplay:10.37,2014-02-05 00:02:00,
2014-02-04 18:07:00,66.0,36.8,30.00,NNE,14,4.9,7.2,34,0.00,SCT,,0.00,WeatherDisplay:10.37,2014-02-05 00:07:00,
2014-02-04 18:12:00,66.2,37.0,30.00,NNE,15,5.4,8.1,34,0.00,SCT,,0.00,WeatherDisplay:10.37,2014-02-05 00:12:00,
2014-02-04 18:17:00,66.4,37.1,30.00,North,0,4.5,10.1,34,0.00,SCT,,0.00,WeatherDisplay:10.37,2014-02-05 00:17:00,
2014-02-04 18:22:00,66.6,37.3,30.00,NNW,341,6.3,8.1,34,0.00,SCT,,0.00,WeatherDisplay:10.37,2014-02-05 00:22:00,
2014-02-04 18:27:00,66.6,37.3,30.00,NNE,14,4.5,8.1,34,0.00,SCT,,0.00,WeatherDisplay:10.37,2014-02-05 00:27:00,
2014-02-04 18:32:00,66.7,37.5,30.01,NNE,29,7.6,9.6,34,0.00,BKN,,0.00,WeatherDisplay:10.37,2014-02-05 00:32:00,
2014-02-04 18:37:00,66.9,37.6,30.01,North,357,9.2,11.5,34,0.00,BKN,,0.00,WeatherDisplay:10.37,2014-02-05 00:37:00,
2014-02-04 18:42:00,66.9,37.6,30.01,NNE,12,8.3,11.5,34,0.00,BKN,,0.00,WeatherDisplay:10.37,2014-02-05 00:42:00,
2014-02-04 18:47:00,67.1,37.8,30.03,North,357,4.9,8.1,34,0.00,BKN,,0.00,WeatherDisplay:10.37,2014-02-05 00:47:00,
2014-02-04 18:52:00,67.1,37.8,30.03,NNE,28,6.7,10.4,34,0.00,BKN,,0.00,WeatherDisplay:10.37,2014-02-05 00:52:00,
2014-02-04 18:57:00,67.1,37.8,30.03,North,0,6.3,10.4,34,0.00,BKN,,0.00,WeatherDisplay:10.37,2014-02-05 00:57:00,
2014-02-04 19:02:00,67.1,37.8,30.04,NNE,19,9.6,13.8,34,0.00,OVC,,0.00,WeatherDisplay:10.37,2014-02-05 01:02:00,
2014-02-04 19:07:00,66.9,37.6,30.04,NNW,332,6.7,12.7,34,0.00,OVC,,0.00,WeatherDisplay:10.37,2014-02-05 01:07:00,
2014-02-04 19:12:00,66.4,37.1,30.04,NNE,13,8.3,13.8,34,0.00,OVC,,0.00,WeatherDisplay:10.37,2014-02-05 01:12:00,
2014-02-04 19:17:00,66.0,36.8,30.04,NW,325,7.2,10.4,34,0.00,OVC,,0.00,WeatherDisplay:10.37,2014-02-05 01:17:00,
2014-02-04 19:22:00,65.7,36.5,30.04,NNE,16,8.0,15.0,34,0.00,OVC,,0.00,WeatherDisplay:10.37,2014-02-05 01:22:00,
2014-02-04 19:27:00,65.5,36.4,30.04,NNE,12,8.3,12.7,34,0.00,OVC,,0.00,WeatherDisplay:10.37,2014-02-05 01:27:00,
2014-02-04 19:32:00,65.5,36.4,30.05,North,0,7.2,9.2,34,0.00,OVC,,0.00,WeatherDisplay:10.37,2014-02-05 01:32:00,
2014-02-04 19:37:00,65.7,36.5,30.05,NE,51,6.3,8.1,34,0.00,OVC,,0.00,WeatherDisplay:10.37,2014-02-05 01:37:00,
2014-02-04 19:42:00,65.7,36.5,30.05,NE,46,6.3,9.2,34,0.00,OVC,,0.00,WeatherDisplay:10.37,2014-02-05 01:42:00,
2014-02-04 19:47:00,65.8,36.7,30.05,NNE,24,9.2,10.4,34,0.00,OVC,,0.00,WeatherDisplay:10.37,2014-02-05 01:47:00,
2014-02-04 19:52:00,66.0,36.8,30.05,NE,40,7.6,9.2,34,0.00,OVC,,0.00,WeatherDisplay:10.37,2014-02-05 01:52:00,
2014-02-04 19:57:00,66.2,37.0,30.05,North,2,8.0,15.0,34,0.00,OVC,,0.00,WeatherDisplay:10.37,2014-02-05 01:57:00,
2014-02-04 20:02:00,66.2,37.0,30.08,North,357,6.7,8.1,34,0.00,FEW,,0.00,WeatherDisplay:10.37,2014-02-05 02:02:00,
2014-02-04 20:07:00,66.4,37.1,30.08,NE,39,7.6,10.5,34,0.00,FEW,,0.00,WeatherDisplay:10.37,2014-02-05 02:07:00,
2014-02-04 20:12:00,66.4,37.1,30.08,NE,39,4.5,8.1,34,0.00,FEW,,0.00,WeatherDisplay:10.37,2014-02-05 02:12:00,
2014-02-04 20:17:00,66.6,37.3,30.08,North,357,5.4,9.2,34,0.00,FEW,,0.00,WeatherDisplay:10.37,2014-02-05 02:17:00,
2014-02-04 20:22:00,66.6,37.3,30.08,North,353,7.6,10.4,34,0.00,FEW,,0.00,WeatherDisplay:10.37,2014-02-05 02:22:00,
2014-02-04 20:27:00,66.6,37.3,30.08,NE,34,5.8,8.1,34,0.00,FEW,,0.00,WeatherDisplay:10.37,2014-02-05 02:27:00,
2014-02-04 20:32:00,66.7,37.5,30.09,NNE,20,6.7,8.1,34,0.00,CLR,,0.00,WeatherDisplay:10.37,2014-02-05 02:32:00,
2014-02-04 20:37:00,66.7,37.5,30.09,NNE,12,7.2,8.1,34,0.00,CLR,,0.00,WeatherDisplay:10.37,2014-02-05 02:37:00,
2014-02-04 20:42:00,66.7,37.5,30.09,North,3,8.3,18.4,34,0.00,CLR,,0.00,WeatherDisplay:10.37,2014-02-05 02:42:00,
2014-02-04 20:47:00,66.9,37.6,30.09,NNE,24,7.2,8.7,34,0.00,FEW,,0.00,WeatherDisplay:10.37,2014-02-05 02:47:00,
2014-02-04 20:52:00,66.9,37.6,30.09,NNW,329,5.8,11.5,34,0.00,FEW,,0.00,WeatherDisplay:10.37,2014-02-05 02:52:00,
2014-02-04 20:57:00,66.9,37.6,30.09,NW,323,6.7,8.3,34,0.00,FEW,,0.00,WeatherDisplay:10.37,2014-02-05 02:57:00,
2014-02-04 21:02:00,66.7,37.5,30.11,NNE,22,4.5,10.1,34,0.00,FEW,,0.00,WeatherDisplay:10.37,2014-02-05 03:02:00,
2014-02-04 21:07:00,66.6,37.3,30.11,NW,324,9.6,13.2,34,0.00,FEW,,0.00,WeatherDisplay:10.37,2014-02-05 03:07:00,
2014-02-04 21:12:00,66.0,36.8,30.11,North,6,5.4,8.1,34,0.00,FEW,,0.00,WeatherDisplay:10.37,2014-02-05 03:12:00,
2014-02-04 21:17:00,65.7,36.5,30.11,North,6,9.6,10.4,34,0.00,FEW,,0.00,WeatherDisplay:10.37,2014-02-05 03:17:00,
2014-02-04 21:22:00,65.5,36.4,30.11,NNE,16,8.7,10.4,34,0.00,FEW,,0.00,WeatherDisplay:10.37,2014-02-05 03:22:00,
2014-02-04 21:27:00,65.5,36.4,30.11,NNW,343,8.7,9.2,34,0.00,FEW,,0.00,WeatherDisplay:10.37,2014-02-05 03:27:00,
2014-02-04 21:32:00,65.7,36.5,30.13,North,3,10.1,11.8,34,0.00,BKN,,0.00,WeatherDisplay:10.37,2014-02-05 03:32:00,
2014-02-04 21:37:00,65.8,36.7,30.13,NNW,336,10.1,16.1,34,0.00,BKN,,0.00,WeatherDisplay:10.37,2014-02-05 03:37:00,
2014-02-04 21:42:00,66.0,36.8,30.13,North,3,8.0,10.9,34,0.00,BKN,,0.00,WeatherDisplay:10.37,2014-02-05 03:42:00,
2014-02-04 21:47:00,66.2,37.0,30.14,North,357,9.6,10.5,34,0.00,BKN,,0.00,WeatherDisplay:10.37,2014-02-05 03:47:00,
2014-02-04 21:52:00,66.4,37.1,30.14,NW,319,6.7,10.5,34,0.00,BKN,,0.00,WeatherDisplay:10.37,2014-02-05 03:52:00,
2014-02-04 21:57:00,66.4,37.1,30.14,North,5,10.1,11.5,34,0.00,BKN,,0.00,WeatherDisplay:10.37,2014-02-05 03:57:00,
2014-02-04 22:02:00,66.6,37.3,30.15,North,2,8.7,9.2,34,0.00,FEW,,0.00,WeatherDisplay:10.37,2014-02-05 04:02:00,
2014-02-04 22:07:00,66.7,37.5,30.15,WNW,289,7.2,11.5,34,0.00,FEW,,0.00,WeatherDisplay:10.37,2014-02-05 04:07:00,
2014-02-04 22:12:00,66.7,37.5,30.15,North,2,8.3,9.2,34,0.00,FEW,,0.00,WeatherDisplay:10.37,2014-02-05 04:12:00,
2014-02-04 22:17:00,66.7,37.5,30.15,North,357,8.3,8.3,34,0.00,FEW,,0.00,WeatherDisplay:10.37,2014-02-05 04:17:00,
2014-02-04 22:22:00,66.7,37.5,30.15,NNW,348,6.3,10.4,34,0.00,FEW,,0.00,WeatherDisplay:10.37,2014-02-05 04:22:00,
2014-02-04 22:27:00,66.9,37.6,30.15,NNW,346,10.5,11.5,34,0.00,FEW,,0.00,WeatherDisplay:10.37,2014-02-05 04:27:00,
2014-02-04 22:32:00,66.9,37.6,30.17,North,1,12.7,15.0,34,0.00,CLR,,0.00,WeatherDisplay:10.37,2014-02-05 04:32:00,
2014-02-04 22:37:00,66.9,37.6,30.17,NE,40,8.0,13.8,34,0.00,CLR,,0.00,WeatherDisplay:10.37,2014-02-05 04:37:00,
2014-02-04 22:42:00,66.9,37.6,30.17,North,5,5.8,10.4,34,0.00,CLR,,0.00,WeatherDisplay:10.37,2014-02-05 04:42:00,
2014-02-04 22:47:00,66.9,37.6,30.18,North,350,9.2,12.7,34,0.00,CLR,,0.00,WeatherDisplay:10.37,2014-02-05 04:47:00,
2014-02-04 22:52:00,66.7,37.5,30.18,NNW,346,6.3,12.7,34,0.00,CLR,,0.00,WeatherDisplay:10.37,2014-02-05 04:52:00,
2014-02-04 22:57:00,66.4,37.1,30.18,North,357,7.2,12.7,34,0.00,CLR,,0.00,WeatherDisplay:10.37,2014-02-05 04:57:00,
2014-02-04 23:01:00,66.0,36.8,30.18,NNW,346,6.7,11.5,34,0.00,-SN,,0.00,WeatherDisplay:10.37,2014-02-05 05:01:00,
2014-02-04 23:02:00,65.8,36.7,30.18,North,3,8.0,11.5,34,0.00,-SN,,0.00,WeatherDisplay:10.37,2014-02-05 05:02:00,
2014-02-04 23:05:00,65.7,36.5,30.20,NW,307,6.3,10.4,34,0.00,CLR,,0.00,WeatherDisplay:10.37,2014-02-05 05:05:00,
2014-02-04 23:10:00,65.5,36.4,30.20,NW,326,8.7,15.0,34,0.00,CLR,,0.00,WeatherDisplay:10.37,2014-02-05 05:10:00,
2014-02-04 23:15:00,65.5,36.4,30.20,North,353,8.0,10.4,34,0.00,CLR,,0.00,WeatherDisplay:10.37,2014-02-05 05:15:00,
2014-02-04 23:20:00,65.7,36.5,30.20,NE,40,8.0,12.7,34,0.00,CLR,,0.00,WeatherDisplay:10.37,2014-02-05 05:20:00,
2014-02-04 23:25:00,65.7,36.5,30.20,NNW,332,9.2,12.7,34,0.00,CLR,,0.00,WeatherDisplay:10.37,2014-02-05 05:25:00,
2014-02-04 23:30:00,65.8,36.7,30.20,NNW,339,9.6,12.7,34,0.00,-SN,,0.00,WeatherDisplay:10.37,2014-02-05 05:30:00,
2014-02-04 23:35:00,65.8,36.7,30.22,NNE,12,8.0,10.9,34,0.00,CLR,,0.00,WeatherDisplay:10.37,2014-02-05 05:35:00,
2014-02-04 23:40:00,66.0,36.8,30.22,North,357,10.9,12.7,34,0.00,CLR,,0.00,WeatherDisplay:10.37,2014-02-05 05:40:00,
2014-02-04 23:45:00,66.0,36.8,30.22,North,353,11.8,15.0,34,0.00,CLR,,0.00,WeatherDisplay:10.37,2014-02-05 05:45:00,
2014-02-04 23:50:00,66.0,36.8,30.23,NNW,331,10.5,15.0,34,0.00,CLR,,0.00,WeatherDisplay:10.37,2014-02-05 05:50:00,
2014-02-04 23:55:00,66.0,36.8,30.23,North,353,10.1,15.0,34,0.00,CLR,,0.00,WeatherDisplay:10.37,2014-02-05 05:55:00,